Aviation Digital Data Service (ADDS)

Output produced by METARs form (0212 UTC 29 May 2015)
found at http://aviationweather.gov/adds/metars/
 
KRWI 282320Z 2900/2924 VRB05KT P6SM SCT050 
     TEMPO 2908/2912 2SM BR SCT005